sensor_id;sensor_type;location;lat;lon;timestamp;temperature;humidity
10968;DHT22;5536;49.602;10.980;2023-05-14T00:00:01;10.00;99.90
10968;DHT22;5536;49.602;10.980;2023-05-14T00:02:28;10.10;99.90
10968;DHT22;5536;49.602;10.980;2023-05-14T00:04:55;10.10;99.90
10968;DHT22;5536;49.602;10.980;2023-05-14T00:07:22;9.90;99.90
10968;DHT22;5536;49.602;10.980;2023-05-14T00:09:55;9.70;99.90
10968;DHT22;5536;49.602;10.980;2023-05-14T00:12:23;9.70;99.90
10968;DHT22;5536;49.602;10.980;2023-05-14T00:14:50;9.60;99.90
10968;DHT22;5536;49.602;10.980;2023-05-14T00:17:18;9.60;99.90
10968;DHT22;5536;49.602;10.980;2023-05-14T00:19:45;9.60;99.90
10968;DHT22;5536;49.602;10.980;2023-05-14T00:22:12;9.60;99.90
10968;DHT22;5536;49.602;10.980;2023-05-14T00:24:39;9.60;99.90
10968;DHT22;5536;49.602;10.980;2023-05-14T00:27:06;9.60;99.90
10968;DHT22;5536;49.602;10.980;2023-05-14T00:29:34;9.60;99.90
10968;DHT22;5536;49.602;10.980;2023-05-14T00:32:02;9.60;99.90
10968;DHT22;5536;49.602;10.980;2023-05-14T00:34:29;9.50;99.90
10968;DHT22;5536;49.602;10.980;2023-05-14T00:36:56;9.60;99.90
10968;DHT22;5536;49.602;10.980;2023-05-14T00:39:23;9.60;99.90
10968;DHT22;5536;49.602;10.980;2023-05-14T00:41:50;9.60;99.90
10968;DHT22;5536;49.602;10.980;2023-05-14T00:44:17;9.40;99.90
10968;DHT22;5536;49.602;10.980;2023-05-14T00:46:45;9.30;99.90
10968;DHT22;5536;49.602;10.980;2023-05-14T00:49:13;9.20;99.90
10968;DHT22;5536;49.602;10.980;2023-05-14T00:51:40;9.20;99.90
10968;DHT22;5536;49.602;10.980;2023-05-14T00:54:07;9.30;99.90
10968;DHT22;5536;49.602;10.980;2023-05-14T00:56:35;9.40;99.90
10968;DHT22;5536;49.602;10.980;2023-05-14T00:59:02;9.40;99.90
10968;DHT22;5536;49.602;10.980;2023-05-14T01:01:29;9.30;99.90
10968;DHT22;5536;49.602;10.980;2023-05-14T01:03:57;9.10;99.90
10968;DHT22;5536;49.602;10.980;2023-05-14T01:06:31;9.30;99.90
10968;DHT22;5536;49.602;10.980;2023-05-14T01:09:09;9.40;99.90
10968;DHT22;5536;49.602;10.980;2023-05-14T01:11:45;9.40;99.90
10968;DHT22;5536;49.602;10.980;2023-05-14T01:14:20;9.50;99.90
10968;DHT22;5536;49.602;10.980;2023-05-14T01:16:49;9.30;99.90
10968;DHT22;5536;49.602;10.980;2023-05-14T01:22:04;9.60;99.90
10968;DHT22;5536;49.602;10.980;2023-05-14T01:24:33;9.60;99.90
10968;DHT22;5536;49.602;10.980;2023-05-14T01:27:05;9.60;99.90
10968;DHT22;5536;49.602;10.980;2023-05-14T01:29:34;9.50;99.90
10968;DHT22;5536;49.602;10.980;2023-05-14T01:32:05;9.50;99.90
10968;DHT22;5536;49.602;10.980;2023-05-14T01:34:35;9.60;99.90
10968;DHT22;5536;49.602;10.980;2023-05-14T01:37:05;9.80;99.90
10968;DHT22;5536;49.602;10.980;2023-05-14T01:39:35;9.90;99.90
10968;DHT22;5536;49.602;10.980;2023-05-14T01:42:04;9.90;99.90
10968;DHT22;5536;49.602;10.980;2023-05-14T01:44:32;9.90;99.90
10968;DHT22;5536;49.602;10.980;2023-05-14T01:46:59;9.80;99.90
10968;DHT22;5536;49.602;10.980;2023-05-14T01:49:26;9.90;99.90
10968;DHT22;5536;49.602;10.980;2023-05-14T01:51:53;9.80;99.90
10968;DHT22;5536;49.602;10.980;2023-05-14T01:54:21;9.80;99.90
10968;DHT22;5536;49.602;10.980;2023-05-14T01:56:48;9.80;99.90
10968;DHT22;5536;49.602;10.980;2023-05-14T01:59:16;9.90;99.90
10968;DHT22;5536;49.602;10.980;2023-05-14T02:01:43;9.80;99.90
10968;DHT22;5536;49.602;10.980;2023-05-14T02:04:10;9.80;99.90
10968;DHT22;5536;49.602;10.980;2023-05-14T02:06:38;9.80;99.90
10968;DHT22;5536;49.602;10.980;2023-05-14T02:09:07;9.80;99.90
10968;DHT22;5536;49.602;10.980;2023-05-14T02:11:35;10.10;99.90
10968;DHT22;5536;49.602;10.980;2023-05-14T02:14:03;10.20;99.90
10968;DHT22;5536;49.602;10.980;2023-05-14T02:16:30;10.00;99.90
10968;DHT22;5536;49.602;10.980;2023-05-14T02:18:57;10.10;99.90
10968;DHT22;5536;49.602;10.980;2023-05-14T02:21:24;10.00;99.90
10968;DHT22;5536;49.602;10.980;2023-05-14T02:23:52;9.90;99.90
10968;DHT22;5536;49.602;10.980;2023-05-14T02:26:20;9.90;99.90
10968;DHT22;5536;49.602;10.980;2023-05-14T02:28:49;10.20;99.90
10968;DHT22;5536;49.602;10.980;2023-05-14T02:31:16;10.10;99.90
10968;DHT22;5536;49.602;10.980;2023-05-14T02:33:44;10.00;99.90
10968;DHT22;5536;49.602;10.980;2023-05-14T02:36:11;10.00;99.90
10968;DHT22;5536;49.602;10.980;2023-05-14T02:38:38;10.20;99.90
10968;DHT22;5536;49.602;10.980;2023-05-14T02:41:05;10.20;99.90
10968;DHT22;5536;49.602;10.980;2023-05-14T02:43:32;10.30;99.90
10968;DHT22;5536;49.602;10.980;2023-05-14T02:46:01;10.30;99.90
10968;DHT22;5536;49.602;10.980;2023-05-14T02:48:28;10.20;99.90
10968;DHT22;5536;49.602;10.980;2023-05-14T02:50:56;10.20;99.90
10968;DHT22;5536;49.602;10.980;2023-05-14T02:53:23;10.20;99.90
10968;DHT22;5536;49.602;10.980;2023-05-14T02:55:50;10.20;99.90
10968;DHT22;5536;49.602;10.980;2023-05-14T02:58:17;10.10;99.90
10968;DHT22;5536;49.602;10.980;2023-05-14T03:00:44;10.10;99.90
10968;DHT22;5536;49.602;10.980;2023-05-14T03:03:13;10.10;99.90
10968;DHT22;5536;49.602;10.980;2023-05-14T03:05:40;10.20;99.90
10968;DHT22;5536;49.602;10.980;2023-05-14T03:08:07;10.20;99.90
10968;DHT22;5536;49.602;10.980;2023-05-14T03:10:34;10.30;99.90
10968;DHT22;5536;49.602;10.980;2023-05-14T03:13:00;10.40;99.90
10968;DHT22;5536;49.602;10.980;2023-05-14T03:15:27;10.30;99.90
10968;DHT22;5536;49.602;10.980;2023-05-14T03:17:55;10.20;99.90
10968;DHT22;5536;49.602;10.980;2023-05-14T03:20:23;10.20;99.90
10968;DHT22;5536;49.602;10.980;2023-05-14T03:22:51;10.20;99.90
10968;DHT22;5536;49.602;10.980;2023-05-14T03:25:19;10.20;99.90
10968;DHT22;5536;49.602;10.980;2023-05-14T03:27:45;10.10;99.90
10968;DHT22;5536;49.602;10.980;2023-05-14T03:30:13;10.10;99.90
10968;DHT22;5536;49.602;10.980;2023-05-14T03:32:40;10.10;99.90
10968;DHT22;5536;49.602;10.980;2023-05-14T03:35:07;10.00;99.90
10968;DHT22;5536;49.602;10.980;2023-05-14T03:37:36;10.00;99.90
10968;DHT22;5536;49.602;10.980;2023-05-14T03:40:04;9.90;99.90
10968;DHT22;5536;49.602;10.980;2023-05-14T03:42:31;10.00;99.90
10968;DHT22;5536;49.602;10.980;2023-05-14T03:44:58;10.10;99.90
10968;DHT22;5536;49.602;10.980;2023-05-14T03:47:25;10.30;99.90
10968;DHT22;5536;49.602;10.980;2023-05-14T03:49:51;10.40;99.90
10968;DHT22;5536;49.602;10.980;2023-05-14T03:52:18;10.30;99.90
10968;DHT22;5536;49.602;10.980;2023-05-14T03:54:47;10.30;99.90
10968;DHT22;5536;49.602;10.980;2023-05-14T03:57:14;10.20;99.90
10968;DHT22;5536;49.602;10.980;2023-05-14T03:59:41;10.20;99.90
10968;DHT22;5536;49.602;10.980;2023-05-14T04:02:07;10.30;99.90
10968;DHT22;5536;49.602;10.980;2023-05-14T04:04:34;10.30;99.90
10968;DHT22;5536;49.602;10.980;2023-05-14T04:07:01;10.30;99.90
10968;DHT22;5536;49.602;10.980;2023-05-14T04:09:28;10.30;99.90
10968;DHT22;5536;49.602;10.980;2023-05-14T04:11:57;10.30;99.90
10968;DHT22;5536;49.602;10.980;2023-05-14T04:14:24;10.30;99.90
10968;DHT22;5536;49.602;10.980;2023-05-14T04:16:51;10.30;99.90
10968;DHT22;5536;49.602;10.980;2023-05-14T04:19:18;10.30;99.90
10968;DHT22;5536;49.602;10.980;2023-05-14T04:21:44;10.20;99.90
10968;DHT22;5536;49.602;10.980;2023-05-14T04:24:11;10.20;99.90
10968;DHT22;5536;49.602;10.980;2023-05-14T04:26:38;10.30;99.90
10968;DHT22;5536;49.602;10.980;2023-05-14T04:29:07;10.40;99.90
10968;DHT22;5536;49.602;10.980;2023-05-14T04:31:34;10.40;99.90
10968;DHT22;5536;49.602;10.980;2023-05-14T04:34:01;10.50;99.90
10968;DHT22;5536;49.602;10.980;2023-05-14T04:36:28;10.50;99.90
10968;DHT22;5536;49.602;10.980;2023-05-14T04:38:55;10.50;99.90
10968;DHT22;5536;49.602;10.980;2023-05-14T04:41:22;10.50;99.90
10968;DHT22;5536;49.602;10.980;2023-05-14T04:43:49;10.50;99.90
10968;DHT22;5536;49.602;10.980;2023-05-14T04:46:20;10.50;99.90
10968;DHT22;5536;49.602;10.980;2023-05-14T04:48:46;10.50;99.90
10968;DHT22;5536;49.602;10.980;2023-05-14T04:51:14;10.60;99.90
10968;DHT22;5536;49.602;10.980;2023-05-14T04:53:41;10.60;99.90
10968;DHT22;5536;49.602;10.980;2023-05-14T04:56:09;10.60;99.90
10968;DHT22;5536;49.602;10.980;2023-05-14T04:58:36;10.80;99.90
10968;DHT22;5536;49.602;10.980;2023-05-14T05:01:04;10.90;99.90
10968;DHT22;5536;49.602;10.980;2023-05-14T05:03:33;11.10;99.90
10968;DHT22;5536;49.602;10.980;2023-05-14T05:06:00;11.20;99.90
10968;DHT22;5536;49.602;10.980;2023-05-14T05:08:27;11.20;99.90
10968;DHT22;5536;49.602;10.980;2023-05-14T05:10:54;11.30;99.90
10968;DHT22;5536;49.602;10.980;2023-05-14T05:13:21;11.30;99.90
10968;DHT22;5536;49.602;10.980;2023-05-14T05:15:48;11.30;99.90
10968;DHT22;5536;49.602;10.980;2023-05-14T05:18:15;11.20;99.90
10968;DHT22;5536;49.602;10.980;2023-05-14T05:20:44;11.20;99.90
10968;DHT22;5536;49.602;10.980;2023-05-14T05:23:11;11.30;99.90
10968;DHT22;5536;49.602;10.980;2023-05-14T05:25:38;11.30;99.90
10968;DHT22;5536;49.602;10.980;2023-05-14T05:28:05;11.40;99.90
10968;DHT22;5536;49.602;10.980;2023-05-14T05:30:33;11.40;99.90
10968;DHT22;5536;49.602;10.980;2023-05-14T05:33:00;11.40;99.90
10968;DHT22;5536;49.602;10.980;2023-05-14T05:35:27;11.50;99.90
10968;DHT22;5536;49.602;10.980;2023-05-14T05:37:56;11.50;99.90
10968;DHT22;5536;49.602;10.980;2023-05-14T05:40:23;11.50;99.90
10968;DHT22;5536;49.602;10.980;2023-05-14T05:42:50;11.50;99.90
10968;DHT22;5536;49.602;10.980;2023-05-14T05:45:19;11.40;99.90
10968;DHT22;5536;49.602;10.980;2023-05-14T05:47:46;11.40;99.90
10968;DHT22;5536;49.602;10.980;2023-05-14T05:50:13;11.50;99.90
10968;DHT22;5536;49.602;10.980;2023-05-14T05:52:40;11.50;99.90
10968;DHT22;5536;49.602;10.980;2023-05-14T05:55:09;11.50;99.90
10968;DHT22;5536;49.602;10.980;2023-05-14T05:57:36;11.60;99.90
10968;DHT22;5536;49.602;10.980;2023-05-14T06:00:03;11.60;99.90
10968;DHT22;5536;49.602;10.980;2023-05-14T06:02:37;11.60;99.90
10968;DHT22;5536;49.602;10.980;2023-05-14T06:05:05;11.70;99.90
10968;DHT22;5536;49.602;10.980;2023-05-14T06:07:33;11.70;99.90
10968;DHT22;5536;49.602;10.980;2023-05-14T06:10:00;11.80;99.90
10968;DHT22;5536;49.602;10.980;2023-05-14T06:12:29;11.90;99.90
10968;DHT22;5536;49.602;10.980;2023-05-14T06:14:56;11.90;99.90
10968;DHT22;5536;49.602;10.980;2023-05-14T06:17:23;12.00;99.90
10968;DHT22;5536;49.602;10.980;2023-05-14T06:19:50;12.10;99.90
10968;DHT22;5536;49.602;10.980;2023-05-14T06:22:18;12.20;99.90
10968;DHT22;5536;49.602;10.980;2023-05-14T06:24:45;12.20;99.90
10968;DHT22;5536;49.602;10.980;2023-05-14T06:27:12;12.20;99.90
10968;DHT22;5536;49.602;10.980;2023-05-14T06:29:40;12.30;99.90
10968;DHT22;5536;49.602;10.980;2023-05-14T06:32:07;12.40;99.90
10968;DHT22;5536;49.602;10.980;2023-05-14T06:34:34;12.40;99.90
10968;DHT22;5536;49.602;10.980;2023-05-14T06:37:02;12.50;99.90
10968;DHT22;5536;49.602;10.980;2023-05-14T06:39:29;12.60;99.90
10968;DHT22;5536;49.602;10.980;2023-05-14T06:41:56;12.70;99.90
10968;DHT22;5536;49.602;10.980;2023-05-14T06:44:23;12.90;99.90
10968;DHT22;5536;49.602;10.980;2023-05-14T06:46:52;13.00;99.90
10968;DHT22;5536;49.602;10.980;2023-05-14T06:49:20;13.00;99.90
10968;DHT22;5536;49.602;10.980;2023-05-14T06:51:47;12.90;99.90
10968;DHT22;5536;49.602;10.980;2023-05-14T06:54:14;12.90;99.90
10968;DHT22;5536;49.602;10.980;2023-05-14T06:56:41;12.90;99.90
10968;DHT22;5536;49.602;10.980;2023-05-14T06:59:08;12.90;99.90
10968;DHT22;5536;49.602;10.980;2023-05-14T07:01:35;13.00;99.90
10968;DHT22;5536;49.602;10.980;2023-05-14T07:04:04;13.00;99.90
10968;DHT22;5536;49.602;10.980;2023-05-14T07:06:31;13.10;99.90
10968;DHT22;5536;49.602;10.980;2023-05-14T07:08:59;13.20;99.90
10968;DHT22;5536;49.602;10.980;2023-05-14T07:11:26;13.20;99.90
10968;DHT22;5536;49.602;10.980;2023-05-14T07:13:54;13.30;99.90
10968;DHT22;5536;49.602;10.980;2023-05-14T07:16:21;13.40;99.90
10968;DHT22;5536;49.602;10.980;2023-05-14T07:18:48;13.60;99.90
10968;DHT22;5536;49.602;10.980;2023-05-14T07:21:17;13.80;99.90
10968;DHT22;5536;49.602;10.980;2023-05-14T07:23:44;14.00;99.90
10968;DHT22;5536;49.602;10.980;2023-05-14T07:26:11;14.20;99.90
10968;DHT22;5536;49.602;10.980;2023-05-14T07:28:38;14.40;99.90
10968;DHT22;5536;49.602;10.980;2023-05-14T07:31:06;14.50;99.90
10968;DHT22;5536;49.602;10.980;2023-05-14T07:33:34;14.60;99.90
10968;DHT22;5536;49.602;10.980;2023-05-14T07:36:01;14.70;99.90
10968;DHT22;5536;49.602;10.980;2023-05-14T07:38:30;14.70;99.90
10968;DHT22;5536;49.602;10.980;2023-05-14T07:40:57;14.70;99.90
10968;DHT22;5536;49.602;10.980;2023-05-14T07:43:24;14.80;99.90
10968;DHT22;5536;49.602;10.980;2023-05-14T07:45:51;14.80;99.90
10968;DHT22;5536;49.602;10.980;2023-05-14T07:48:18;14.70;99.90
10968;DHT22;5536;49.602;10.980;2023-05-14T07:50:46;14.60;99.90
10968;DHT22;5536;49.602;10.980;2023-05-14T07:53:14;14.60;99.90
10968;DHT22;5536;49.602;10.980;2023-05-14T07:55:43;14.50;99.90
10968;DHT22;5536;49.602;10.980;2023-05-14T07:58:12;14.40;99.90
10968;DHT22;5536;49.602;10.980;2023-05-14T08:00:40;14.40;99.90
10968;DHT22;5536;49.602;10.980;2023-05-14T08:03:07;14.30;99.90
10968;DHT22;5536;49.602;10.980;2023-05-14T08:05:34;14.30;99.90
10968;DHT22;5536;49.602;10.980;2023-05-14T08:08:01;14.30;99.90
10968;DHT22;5536;49.602;10.980;2023-05-14T08:10:28;14.30;99.90
10968;DHT22;5536;49.602;10.980;2023-05-14T08:12:56;14.30;99.90
10968;DHT22;5536;49.602;10.980;2023-05-14T08:15:23;14.20;99.90
10968;DHT22;5536;49.602;10.980;2023-05-14T08:17:50;14.30;99.90
10968;DHT22;5536;49.602;10.980;2023-05-14T08:20:18;14.30;99.90
10968;DHT22;5536;49.602;10.980;2023-05-14T08:22:45;14.30;99.90
10968;DHT22;5536;49.602;10.980;2023-05-14T08:25:12;14.40;99.90
10968;DHT22;5536;49.602;10.980;2023-05-14T08:27:41;14.50;99.90
10968;DHT22;5536;49.602;10.980;2023-05-14T08:30:11;14.60;99.90
10968;DHT22;5536;49.602;10.980;2023-05-14T08:32:38;14.60;99.90
10968;DHT22;5536;49.602;10.980;2023-05-14T08:35:07;14.60;99.90
10968;DHT22;5536;49.602;10.980;2023-05-14T08:37:34;14.60;99.90
10968;DHT22;5536;49.602;10.980;2023-05-14T08:40:02;14.70;99.90
10968;DHT22;5536;49.602;10.980;2023-05-14T08:42:30;14.80;99.90
10968;DHT22;5536;49.602;10.980;2023-05-14T08:45:01;14.80;99.90
10968;DHT22;5536;49.602;10.980;2023-05-14T08:47:30;14.80;99.90
10968;DHT22;5536;49.602;10.980;2023-05-14T08:50:00;14.80;99.90
10968;DHT22;5536;49.602;10.980;2023-05-14T08:52:29;14.80;99.90
10968;DHT22;5536;49.602;10.980;2023-05-14T08:54:58;14.70;99.90
10968;DHT22;5536;49.602;10.980;2023-05-14T08:57:27;14.60;99.90
10968;DHT22;5536;49.602;10.980;2023-05-14T08:59:56;14.60;99.90
10968;DHT22;5536;49.602;10.980;2023-05-14T09:02:26;14.60;99.90
10968;DHT22;5536;49.602;10.980;2023-05-14T09:04:57;14.60;99.90
10968;DHT22;5536;49.602;10.980;2023-05-14T09:07:24;14.70;99.90
10968;DHT22;5536;49.602;10.980;2023-05-14T09:09:52;14.80;99.90
10968;DHT22;5536;49.602;10.980;2023-05-14T09:12:20;14.90;99.90
10968;DHT22;5536;49.602;10.980;2023-05-14T09:14:48;15.00;99.90
10968;DHT22;5536;49.602;10.980;2023-05-14T09:17:16;15.10;99.90
10968;DHT22;5536;49.602;10.980;2023-05-14T09:19:44;15.10;99.90
10968;DHT22;5536;49.602;10.980;2023-05-14T09:22:16;15.10;99.90
10968;DHT22;5536;49.602;10.980;2023-05-14T09:24:44;15.10;99.90
10968;DHT22;5536;49.602;10.980;2023-05-14T09:27:17;15.10;99.90
10968;DHT22;5536;49.602;10.980;2023-05-14T09:29:45;15.20;99.90
10968;DHT22;5536;49.602;10.980;2023-05-14T09:32:13;15.10;99.90
10968;DHT22;5536;49.602;10.980;2023-05-14T09:34:40;15.10;99.90
10968;DHT22;5536;49.602;10.980;2023-05-14T09:37:08;15.10;99.90
10968;DHT22;5536;49.602;10.980;2023-05-14T09:39:37;15.20;99.90
10968;DHT22;5536;49.602;10.980;2023-05-14T09:42:05;15.10;99.90
10968;DHT22;5536;49.602;10.980;2023-05-14T09:44:32;15.20;99.90
10968;DHT22;5536;49.602;10.980;2023-05-14T09:47:00;15.00;99.90
10968;DHT22;5536;49.602;10.980;2023-05-14T09:49:28;15.10;99.90
10968;DHT22;5536;49.602;10.980;2023-05-14T09:51:55;15.40;99.90
10968;DHT22;5536;49.602;10.980;2023-05-14T09:54:24;15.50;99.90
10968;DHT22;5536;49.602;10.980;2023-05-14T09:56:53;15.70;99.90
10968;DHT22;5536;49.602;10.980;2023-05-14T09:59:20;16.00;99.90
10968;DHT22;5536;49.602;10.980;2023-05-14T10:01:48;16.20;99.90
10968;DHT22;5536;49.602;10.980;2023-05-14T10:04:15;16.50;99.90
10968;DHT22;5536;49.602;10.980;2023-05-14T10:06:43;16.70;99.90
10968;DHT22;5536;49.602;10.980;2023-05-14T10:09:15;16.80;99.90
10968;DHT22;5536;49.602;10.980;2023-05-14T10:11:47;16.90;99.90
10968;DHT22;5536;49.602;10.980;2023-05-14T10:14:24;17.00;99.90
10968;DHT22;5536;49.602;10.980;2023-05-14T10:16:53;17.10;99.90
10968;DHT22;5536;49.602;10.980;2023-05-14T10:19:23;17.10;99.90
10968;DHT22;5536;49.602;10.980;2023-05-14T10:21:54;17.20;99.90
10968;DHT22;5536;49.602;10.980;2023-05-14T10:24:22;17.50;99.90
10968;DHT22;5536;49.602;10.980;2023-05-14T10:26:50;17.80;99.90
10968;DHT22;5536;49.602;10.980;2023-05-14T10:29:17;17.60;99.90
10968;DHT22;5536;49.602;10.980;2023-05-14T10:31:48;17.70;99.90
10968;DHT22;5536;49.602;10.980;2023-05-14T10:34:31;17.70;99.90
10968;DHT22;5536;49.602;10.980;2023-05-14T10:37:00;17.40;99.90
10968;DHT22;5536;49.602;10.980;2023-05-14T10:39:44;17.20;99.90
10968;DHT22;5536;49.602;10.980;2023-05-14T10:42:12;17.30;99.90
10968;DHT22;5536;49.602;10.980;2023-05-14T10:44:46;17.30;99.90
10968;DHT22;5536;49.602;10.980;2023-05-14T10:47:15;17.20;99.90
10968;DHT22;5536;49.602;10.980;2023-05-14T10:49:44;17.20;99.90
10968;DHT22;5536;49.602;10.980;2023-05-14T10:52:15;17.20;99.90
10968;DHT22;5536;49.602;10.980;2023-05-14T10:54:49;17.10;99.90
10968;DHT22;5536;49.602;10.980;2023-05-14T10:57:17;16.70;99.90
10968;DHT22;5536;49.602;10.980;2023-05-14T10:59:46;16.70;99.90
10968;DHT22;5536;49.602;10.980;2023-05-14T11:02:23;16.70;99.90
10968;DHT22;5536;49.602;10.980;2023-05-14T11:04:58;17.00;99.90
10968;DHT22;5536;49.602;10.980;2023-05-14T11:07:29;17.10;99.90
10968;DHT22;5536;49.602;10.980;2023-05-14T11:10:02;17.00;99.90
10968;DHT22;5536;49.602;10.980;2023-05-14T11:12:29;17.00;99.90
10968;DHT22;5536;49.602;10.980;2023-05-14T11:14:58;17.10;99.90
10968;DHT22;5536;49.602;10.980;2023-05-14T11:17:29;17.10;99.90
10968;DHT22;5536;49.602;10.980;2023-05-14T11:19:57;17.30;99.90
10968;DHT22;5536;49.602;10.980;2023-05-14T11:22:24;17.50;99.90
10968;DHT22;5536;49.602;10.980;2023-05-14T11:24:51;17.70;99.90
10968;DHT22;5536;49.602;10.980;2023-05-14T11:27:19;18.20;99.90
10968;DHT22;5536;49.602;10.980;2023-05-14T11:29:47;19.40;99.90
10968;DHT22;5536;49.602;10.980;2023-05-14T11:32:15;19.60;99.90
10968;DHT22;5536;49.602;10.980;2023-05-14T11:34:45;20.10;99.90
10968;DHT22;5536;49.602;10.980;2023-05-14T11:37:13;20.60;99.90
10968;DHT22;5536;49.602;10.980;2023-05-14T11:39:46;20.40;99.90
10968;DHT22;5536;49.602;10.980;2023-05-14T11:42:14;20.00;99.90
10968;DHT22;5536;49.602;10.980;2023-05-14T11:44:43;19.80;99.90
10968;DHT22;5536;49.602;10.980;2023-05-14T11:47:10;19.10;99.90
10968;DHT22;5536;49.602;10.980;2023-05-14T11:49:38;19.00;99.90
10968;DHT22;5536;49.602;10.980;2023-05-14T11:52:08;18.80;99.90
10968;DHT22;5536;49.602;10.980;2023-05-14T11:54:36;18.80;99.90
10968;DHT22;5536;49.602;10.980;2023-05-14T11:57:08;18.70;99.90
10968;DHT22;5536;49.602;10.980;2023-05-14T11:59:35;18.30;99.90
10968;DHT22;5536;49.602;10.980;2023-05-14T12:02:03;18.30;99.90
10968;DHT22;5536;49.602;10.980;2023-05-14T12:04:31;18.20;99.90
10968;DHT22;5536;49.602;10.980;2023-05-14T12:06:59;18.30;99.90
10968;DHT22;5536;49.602;10.980;2023-05-14T12:09:27;18.30;99.90
10968;DHT22;5536;49.602;10.980;2023-05-14T12:11:54;18.30;99.90
10968;DHT22;5536;49.602;10.980;2023-05-14T12:14:22;18.50;99.90
10968;DHT22;5536;49.602;10.980;2023-05-14T12:16:50;18.70;99.90
10968;DHT22;5536;49.602;10.980;2023-05-14T12:19:18;18.70;99.90
10968;DHT22;5536;49.602;10.980;2023-05-14T12:21:46;18.80;99.90
10968;DHT22;5536;49.602;10.980;2023-05-14T12:24:16;19.20;99.90
10968;DHT22;5536;49.602;10.980;2023-05-14T12:26:46;19.70;99.90
10968;DHT22;5536;49.602;10.980;2023-05-14T12:29:15;21.00;99.90
10968;DHT22;5536;49.602;10.980;2023-05-14T12:31:45;21.30;99.90
10968;DHT22;5536;49.602;10.980;2023-05-14T12:34:13;20.40;99.90
10968;DHT22;5536;49.602;10.980;2023-05-14T12:36:41;20.00;99.90
10968;DHT22;5536;49.602;10.980;2023-05-14T12:39:08;19.70;99.90
10968;DHT22;5536;49.602;10.980;2023-05-14T12:41:36;19.90;99.90
10968;DHT22;5536;49.602;10.980;2023-05-14T12:44:05;19.60;99.90
10968;DHT22;5536;49.602;10.980;2023-05-14T12:46:32;19.60;99.90
10968;DHT22;5536;49.602;10.980;2023-05-14T12:48:59;19.50;99.90
10968;DHT22;5536;49.602;10.980;2023-05-14T12:51:26;19.40;99.90
10968;DHT22;5536;49.602;10.980;2023-05-14T12:53:54;19.40;99.90
10968;DHT22;5536;49.602;10.980;2023-05-14T12:56:21;19.50;99.90
10968;DHT22;5536;49.602;10.980;2023-05-14T12:58:53;19.60;99.90
10968;DHT22;5536;49.602;10.980;2023-05-14T13:01:22;20.40;99.90
10968;DHT22;5536;49.602;10.980;2023-05-14T13:03:49;21.40;99.90
10968;DHT22;5536;49.602;10.980;2023-05-14T13:06:16;21.60;99.90
10968;DHT22;5536;49.602;10.980;2023-05-14T13:08:43;21.10;99.90
10968;DHT22;5536;49.602;10.980;2023-05-14T13:11:10;20.60;99.90
10968;DHT22;5536;49.602;10.980;2023-05-14T13:13:37;20.10;99.90
10968;DHT22;5536;49.602;10.980;2023-05-14T13:16:05;20.40;99.90
10968;DHT22;5536;49.602;10.980;2023-05-14T13:18:33;20.60;99.90
10968;DHT22;5536;49.602;10.980;2023-05-14T13:21:00;21.10;99.90
10968;DHT22;5536;49.602;10.980;2023-05-14T13:23:30;21.60;99.90
10968;DHT22;5536;49.602;10.980;2023-05-14T13:25:58;22.00;99.90
10968;DHT22;5536;49.602;10.980;2023-05-14T13:28:25;22.10;99.90
10968;DHT22;5536;49.602;10.980;2023-05-14T13:31:06;22.00;99.90
10968;DHT22;5536;49.602;10.980;2023-05-14T13:33:41;21.50;99.90
10968;DHT22;5536;49.602;10.980;2023-05-14T13:36:09;20.70;99.90
10968;DHT22;5536;49.602;10.980;2023-05-14T13:38:36;20.40;99.90
10968;DHT22;5536;49.602;10.980;2023-05-14T13:41:04;20.30;99.90
10968;DHT22;5536;49.602;10.980;2023-05-14T13:43:32;19.80;99.90
10968;DHT22;5536;49.602;10.980;2023-05-14T13:45:59;19.40;99.90
10968;DHT22;5536;49.602;10.980;2023-05-14T13:48:26;20.50;99.90
10968;DHT22;5536;49.602;10.980;2023-05-14T13:50:55;20.40;99.90
10968;DHT22;5536;49.602;10.980;2023-05-14T13:53:23;19.90;99.90
10968;DHT22;5536;49.602;10.980;2023-05-14T13:55:50;19.80;99.90
10968;DHT22;5536;49.602;10.980;2023-05-14T13:58:21;19.70;99.90
10968;DHT22;5536;49.602;10.980;2023-05-14T14:00:48;19.60;99.90
10968;DHT22;5536;49.602;10.980;2023-05-14T14:03:15;19.90;99.90
10968;DHT22;5536;49.602;10.980;2023-05-14T14:05:43;19.90;99.90
10968;DHT22;5536;49.602;10.980;2023-05-14T14:08:11;20.10;99.90
10968;DHT22;5536;49.602;10.980;2023-05-14T14:10:38;20.20;99.90
10968;DHT22;5536;49.602;10.980;2023-05-14T14:13:07;20.20;99.90
10968;DHT22;5536;49.602;10.980;2023-05-14T14:15:34;20.10;99.90
10968;DHT22;5536;49.602;10.980;2023-05-14T14:18:01;19.90;99.90
10968;DHT22;5536;49.602;10.980;2023-05-14T14:20:28;19.70;99.90
10968;DHT22;5536;49.602;10.980;2023-05-14T14:22:55;19.80;99.90
10968;DHT22;5536;49.602;10.980;2023-05-14T14:25:24;19.60;99.90
10968;DHT22;5536;49.602;10.980;2023-05-14T14:27:51;19.40;99.90
10968;DHT22;5536;49.602;10.980;2023-05-14T14:30:18;19.50;99.90
10968;DHT22;5536;49.602;10.980;2023-05-14T14:32:45;19.70;99.90
10968;DHT22;5536;49.602;10.980;2023-05-14T14:35:13;19.50;99.90
10968;DHT22;5536;49.602;10.980;2023-05-14T14:37:41;19.20;99.90
10968;DHT22;5536;49.602;10.980;2023-05-14T14:40:13;19.10;99.90
10968;DHT22;5536;49.602;10.980;2023-05-14T14:42:42;19.00;99.90
10968;DHT22;5536;49.602;10.980;2023-05-14T14:45:09;19.30;99.90
10968;DHT22;5536;49.602;10.980;2023-05-14T14:47:37;19.40;99.90
10968;DHT22;5536;49.602;10.980;2023-05-14T14:50:05;19.40;99.90
10968;DHT22;5536;49.602;10.980;2023-05-14T14:52:32;19.10;99.90
10968;DHT22;5536;49.602;10.980;2023-05-14T14:55:00;18.90;99.90
10968;DHT22;5536;49.602;10.980;2023-05-14T14:57:27;19.00;99.90
10968;DHT22;5536;49.602;10.980;2023-05-14T14:59:55;19.00;99.90
10968;DHT22;5536;49.602;10.980;2023-05-14T15:02:22;18.90;99.90
10968;DHT22;5536;49.602;10.980;2023-05-14T15:04:50;18.70;99.90
10968;DHT22;5536;49.602;10.980;2023-05-14T15:07:17;18.50;99.90
10968;DHT22;5536;49.602;10.980;2023-05-14T15:09:45;18.50;99.90
10968;DHT22;5536;49.602;10.980;2023-05-14T15:12:12;18.60;99.90
10968;DHT22;5536;49.602;10.980;2023-05-14T15:14:39;18.60;99.90
10968;DHT22;5536;49.602;10.980;2023-05-14T15:17:07;18.70;99.90
10968;DHT22;5536;49.602;10.980;2023-05-14T15:19:34;18.70;99.90
10968;DHT22;5536;49.602;10.980;2023-05-14T15:22:01;18.60;99.90
10968;DHT22;5536;49.602;10.980;2023-05-14T15:24:28;18.50;99.90
10968;DHT22;5536;49.602;10.980;2023-05-14T15:26:55;18.60;99.90
10968;DHT22;5536;49.602;10.980;2023-05-14T15:29:22;18.80;99.90
10968;DHT22;5536;49.602;10.980;2023-05-14T15:31:49;18.60;99.90
10968;DHT22;5536;49.602;10.980;2023-05-14T15:34:17;18.70;99.90
10968;DHT22;5536;49.602;10.980;2023-05-14T15:36:45;18.60;99.90
10968;DHT22;5536;49.602;10.980;2023-05-14T15:39:12;18.80;99.90